createdAt,value
2017-09-05T00:02:27.838Z,7.68
2017-09-05T00:04:56.260Z,7.61
2017-09-05T00:07:28.500Z,7.59
2017-09-05T00:10:00.280Z,7.57
2017-09-05T00:12:40.228Z,7.53
2017-09-05T00:18:22.167Z,7.38
2017-09-05T00:20:50.024Z,7.32
2017-09-05T00:23:17.924Z,7.26
2017-09-05T00:25:45.827Z,7.26
2017-09-05T00:28:13.667Z,7.26
2017-09-05T00:30:41.483Z,7.23
2017-09-05T00:33:09.335Z,7.18
2017-09-05T00:35:37.164Z,7.13
2017-09-05T00:38:05.026Z,7.13
2017-09-05T00:40:32.861Z,7.13
2017-09-05T00:43:00.725Z,7.13
2017-09-05T00:45:28.628Z,7.09
2017-09-05T00:47:56.427Z,7.03
2017-09-05T00:50:24.294Z,6.99
2017-09-05T00:52:52.092Z,6.94
2017-09-05T00:55:19.949Z,6.92
2017-09-05T00:57:47.836Z,6.94
2017-09-05T01:00:15.711Z,6.93
2017-09-05T01:02:43.514Z,6.90
2017-09-05T01:05:11.402Z,6.84
2017-09-05T01:07:39.269Z,6.82
2017-09-05T01:10:07.152Z,6.74
2017-09-05T01:12:34.997Z,6.73
2017-09-05T01:15:02.947Z,6.74
2017-09-05T01:17:30.760Z,6.71
2017-09-05T01:19:59.113Z,6.75
2017-09-05T01:22:27.116Z,6.78
2017-09-05T01:24:55.009Z,6.80
2017-09-05T01:27:22.837Z,6.81
2017-09-05T01:29:50.680Z,6.81
2017-09-05T01:32:18.530Z,6.81
2017-09-05T01:34:46.437Z,6.79
2017-09-05T01:37:14.312Z,6.79
2017-09-05T01:39:42.245Z,6.80
2017-09-05T01:42:10.122Z,6.76
2017-09-05T01:44:37.922Z,6.70
2017-09-05T01:47:05.665Z,6.71
2017-09-05T01:49:33.466Z,6.69
2017-09-05T01:52:01.283Z,6.65
2017-09-05T01:54:29.128Z,6.60
2017-09-05T01:56:56.949Z,6.58
2017-09-05T01:59:24.715Z,6.55
2017-09-05T02:01:52.504Z,6.55
2017-09-05T02:04:20.357Z,6.59
2017-09-05T02:06:48.164Z,6.57
2017-09-05T02:09:16.000Z,6.52
2017-09-05T02:11:43.843Z,6.49
2017-09-05T02:14:11.684Z,6.47
2017-09-05T02:16:39.542Z,6.42
2017-09-05T02:19:07.402Z,6.40
2017-09-05T02:21:35.208Z,6.39
2017-09-05T02:24:03.034Z,6.32
2017-09-05T02:26:30.950Z,6.32
2017-09-05T02:28:58.700Z,6.38
2017-09-05T02:31:26.536Z,6.41
2017-09-05T02:33:54.416Z,6.34
2017-09-05T02:36:22.310Z,6.31
2017-09-05T02:38:50.118Z,6.29
2017-09-05T02:41:17.978Z,6.27
2017-09-05T02:43:45.780Z,6.26
2017-09-05T02:46:13.655Z,6.23
2017-09-05T02:48:41.468Z,6.17
2017-09-05T02:51:09.331Z,6.14
2017-09-05T02:53:37.141Z,6.12
2017-09-05T02:56:04.862Z,6.11
2017-09-05T02:58:32.700Z,6.08
2017-09-05T03:01:00.516Z,6.07
2017-09-05T03:03:28.369Z,6.05
2017-09-05T03:05:56.181Z,6.05
2017-09-05T03:08:23.939Z,6.05
2017-09-05T03:10:51.776Z,6.00
2017-09-05T03:13:19.555Z,6.04
2017-09-05T03:15:47.385Z,6.10
2017-09-05T03:18:15.133Z,6.10
2017-09-05T03:20:42.921Z,6.05
2017-09-05T03:23:10.795Z,6.04
2017-09-05T03:25:38.517Z,6.01
2017-09-05T03:28:06.379Z,5.95
2017-09-05T03:30:34.194Z,5.92
2017-09-05T03:33:02.026Z,5.88
2017-09-05T03:35:29.875Z,5.84
2017-09-05T03:37:57.693Z,5.81
2017-09-05T03:40:25.455Z,5.80
2017-09-05T03:42:53.265Z,5.82
2017-09-05T03:45:21.118Z,5.85
2017-09-05T03:47:48.938Z,5.90
2017-09-05T03:50:16.792Z,5.92
2017-09-05T03:52:44.592Z,5.99
2017-09-05T03:55:12.459Z,6.03
2017-09-05T03:57:40.281Z,6.03
2017-09-05T04:00:08.173Z,6.01
2017-09-05T04:02:36.018Z,5.95
2017-09-05T04:05:03.882Z,5.90
2017-09-05T04:07:31.686Z,5.86
2017-09-05T04:09:59.520Z,5.89
2017-09-05T04:12:27.397Z,5.81
2017-09-05T04:14:55.217Z,5.68
2017-09-05T04:17:23.073Z,5.70
2017-09-05T04:19:50.889Z,5.77
2017-09-05T04:22:18.736Z,5.80
2017-09-05T04:24:46.501Z,5.80
2017-09-05T04:27:14.407Z,5.75
2017-09-05T04:29:42.157Z,5.74
2017-09-05T04:32:10.064Z,5.71
2017-09-05T04:34:37.867Z,5.67
2017-09-05T04:37:05.739Z,5.66
2017-09-05T04:39:33.552Z,5.66
2017-09-05T04:42:01.418Z,5.64
2017-09-05T04:44:29.137Z,5.64
2017-09-05T04:46:56.882Z,5.65
2017-09-05T04:49:24.617Z,5.58
2017-09-05T04:51:52.333Z,5.53
2017-09-05T04:54:20.101Z,5.56
2017-09-05T04:56:47.857Z,5.58
2017-09-05T04:59:15.652Z,5.59
2017-09-05T05:01:43.369Z,5.60
2017-09-05T05:04:11.129Z,5.66
2017-09-05T05:06:38.851Z,5.74
2017-09-05T05:09:06.722Z,5.82
2017-09-05T05:11:34.433Z,5.92
2017-09-05T05:14:02.183Z,6.01
2017-09-05T05:16:29.893Z,6.09
2017-09-05T05:18:57.645Z,6.12
2017-09-05T05:21:25.373Z,6.15
2017-09-05T05:23:53.171Z,6.21
2017-09-05T05:26:20.886Z,6.37
2017-09-05T05:28:48.602Z,6.53
2017-09-05T05:31:16.399Z,6.63
2017-09-05T05:33:44.147Z,6.75
2017-09-05T05:36:11.903Z,6.93
2017-09-05T05:38:39.636Z,7.16
2017-09-05T05:41:07.385Z,7.37
2017-09-05T05:43:35.081Z,7.58
2017-09-05T05:46:02.869Z,7.73
2017-09-05T05:48:30.591Z,7.85
2017-09-05T05:50:58.339Z,8.06
2017-09-05T05:53:26.048Z,8.49
2017-09-05T05:55:53.796Z,8.84
2017-09-05T05:58:21.534Z,8.99
2017-09-05T06:00:49.294Z,9.03
2017-09-05T06:03:17.002Z,9.08
2017-09-05T06:05:44.744Z,9.09
2017-09-05T06:08:12.530Z,9.12
2017-09-05T06:10:40.257Z,9.14
2017-09-05T06:13:08.026Z,9.16
2017-09-05T06:15:35.757Z,9.19
2017-09-05T06:18:03.503Z,9.25
2017-09-05T06:20:31.489Z,9.36
2017-09-05T06:22:59.277Z,9.52
2017-09-05T06:25:26.995Z,9.69
2017-09-05T06:27:54.755Z,9.88
2017-09-05T06:30:22.478Z,10.10
2017-09-05T06:32:50.264Z,10.32
2017-09-05T06:35:17.997Z,10.49
2017-09-05T06:37:45.812Z,10.69
2017-09-05T06:40:13.536Z,10.84
2017-09-05T06:42:41.267Z,10.99
2017-09-05T06:45:09.044Z,11.23
2017-09-05T06:47:36.796Z,11.46
2017-09-05T06:50:04.570Z,11.67
2017-09-05T06:52:32.308Z,11.88
2017-09-05T06:55:00.116Z,12.09
2017-09-05T06:57:27.819Z,12.29
2017-09-05T06:59:55.617Z,12.42
2017-09-05T07:02:23.408Z,12.65
2017-09-05T07:04:51.288Z,12.89
2017-09-05T07:07:19.122Z,13.06
2017-09-05T07:09:46.933Z,13.24
2017-09-05T07:12:14.756Z,13.40
2017-09-05T07:14:43.946Z,13.54
2017-09-05T07:17:12.653Z,13.69
2017-09-05T07:19:40.851Z,13.86
2017-09-05T07:22:08.630Z,14.04
2017-09-05T07:24:36.404Z,14.26
2017-09-05T07:27:05.505Z,14.47
2017-09-05T07:29:34.976Z,14.70
2017-09-05T07:32:03.057Z,14.93
2017-09-05T07:34:30.801Z,15.14
2017-09-05T07:36:58.567Z,15.38
2017-09-05T07:39:26.335Z,15.58
2017-09-05T07:41:54.103Z,15.74
2017-09-05T07:44:21.874Z,15.92
2017-09-05T07:46:49.722Z,16.04
2017-09-05T07:49:17.561Z,16.24
2017-09-05T07:51:45.488Z,16.48
2017-09-05T07:54:13.701Z,16.56
2017-09-05T07:56:41.611Z,16.82
2017-09-05T08:01:45.254Z,17.23
2017-09-05T08:04:13.173Z,17.43
2017-09-05T08:06:41.223Z,17.61
2017-09-05T08:09:09.070Z,17.82
2017-09-05T08:11:37.066Z,18.05
2017-09-05T08:14:04.942Z,18.18
2017-09-05T08:16:32.928Z,18.29
2017-09-05T08:19:00.936Z,18.41
2017-09-05T08:21:28.803Z,18.55
2017-09-05T08:23:56.720Z,18.76
2017-09-05T08:26:24.611Z,18.90
2017-09-05T08:28:52.649Z,18.96
2017-09-05T08:31:20.526Z,18.99
2017-09-05T08:33:48.493Z,19.07
2017-09-05T08:36:16.439Z,19.26
2017-09-05T08:38:44.314Z,19.29
2017-09-05T08:41:12.152Z,19.29
2017-09-05T08:43:40.073Z,19.33
2017-09-05T08:46:08.129Z,19.54
2017-09-05T08:48:36.049Z,19.56
2017-09-05T08:51:03.962Z,19.69
2017-09-05T08:53:32.030Z,19.85
2017-09-05T08:55:59.980Z,19.93
2017-09-05T08:58:27.829Z,20.10
2017-09-05T09:00:55.842Z,20.23
2017-09-05T09:03:23.805Z,20.47
2017-09-05T09:05:51.822Z,20.60
2017-09-05T09:08:19.806Z,20.61
2017-09-05T09:10:47.850Z,20.77
2017-09-05T09:13:15.725Z,20.66
2017-09-05T09:15:43.646Z,20.61
2017-09-05T09:18:11.527Z,20.65
2017-09-05T09:20:39.447Z,20.57
2017-09-05T09:23:07.310Z,20.62
2017-09-05T09:25:35.269Z,20.90
2017-09-05T09:28:03.280Z,21.04
2017-09-05T09:30:31.278Z,21.07
2017-09-05T09:32:59.278Z,21.07
2017-09-05T09:35:27.229Z,21.05
2017-09-05T09:37:55.144Z,21.13
2017-09-05T09:40:23.052Z,21.27
2017-09-05T09:42:51.008Z,21.44
2017-09-05T09:45:18.876Z,21.66
2017-09-05T09:47:46.798Z,21.75
2017-09-05T09:50:14.675Z,21.72
2017-09-05T09:52:42.578Z,21.66
2017-09-05T09:55:10.562Z,21.63
2017-09-05T09:57:38.624Z,21.35
2017-09-05T10:00:06.596Z,21.45
2017-09-05T10:02:34.599Z,21.55
2017-09-05T10:05:02.686Z,21.75
2017-09-05T10:07:30.678Z,21.81
2017-09-05T10:09:58.672Z,21.57
2017-09-05T10:12:26.696Z,21.72
2017-09-05T10:14:54.766Z,21.82
2017-09-05T10:17:22.771Z,21.89
2017-09-05T10:19:50.788Z,22.00
2017-09-05T10:22:18.830Z,22.03
2017-09-05T10:24:46.854Z,22.04
2017-09-05T10:27:14.861Z,22.07
2017-09-05T10:29:42.887Z,22.32
2017-09-05T10:32:10.901Z,22.45
2017-09-05T10:34:38.918Z,22.51
2017-09-05T10:37:06.795Z,22.57
2017-09-05T10:39:34.763Z,22.53
2017-09-05T10:42:02.859Z,22.43
2017-09-05T10:44:30.964Z,22.50
2017-09-05T10:46:58.986Z,22.61
2017-09-05T10:49:26.963Z,22.65
2017-09-05T10:51:54.981Z,22.69
2017-09-05T10:54:22.951Z,22.68
2017-09-05T10:56:50.948Z,22.81
2017-09-05T10:59:18.928Z,22.88
2017-09-05T11:01:46.961Z,22.64
2017-09-05T11:04:14.910Z,22.63
2017-09-05T11:06:42.914Z,22.78
2017-09-05T11:09:10.769Z,22.82
2017-09-05T11:11:38.671Z,22.95
2017-09-05T11:14:06.615Z,23.03
2017-09-05T11:16:34.867Z,23.09
2017-09-05T11:19:03.066Z,23.18
2017-09-05T11:21:31.071Z,23.15
2017-09-05T11:23:59.096Z,23.05
2017-09-05T11:26:27.082Z,23.00
2017-09-05T11:28:55.135Z,22.98
2017-09-05T11:31:22.971Z,23.03
2017-09-05T11:33:50.956Z,23.05
2017-09-05T11:36:18.903Z,23.20
2017-09-05T11:38:46.929Z,23.28
2017-09-05T11:41:14.956Z,23.34
2017-09-05T11:43:42.946Z,23.45
2017-09-05T11:46:10.910Z,23.42
2017-09-05T11:48:38.911Z,23.47
2017-09-05T11:51:06.874Z,23.33
2017-09-05T11:53:34.869Z,23.21
2017-09-05T11:56:02.824Z,23.19
2017-09-05T11:58:30.822Z,23.18
2017-09-05T12:00:58.678Z,23.19
2017-09-05T12:03:26.542Z,23.24
2017-09-05T12:05:54.422Z,23.34
2017-09-05T12:08:22.279Z,23.56
2017-09-05T12:10:50.402Z,23.44
2017-09-05T12:13:18.327Z,23.30
2017-09-05T12:15:46.227Z,23.35
2017-09-05T12:18:14.107Z,23.40
2017-09-05T12:20:42.022Z,23.53
2017-09-05T12:23:09.979Z,23.66
2017-09-05T12:25:38.077Z,23.84
2017-09-05T12:28:05.921Z,24.05
2017-09-05T12:30:33.816Z,24.12
2017-09-05T12:33:01.705Z,24.16
2017-09-05T12:35:29.629Z,24.20
2017-09-05T12:37:57.521Z,24.16
2017-09-05T12:40:25.473Z,24.15
2017-09-05T12:42:53.303Z,24.01
2017-09-05T12:45:21.137Z,24.06
2017-09-05T12:47:49.065Z,24.03
2017-09-05T12:50:16.915Z,24.02
2017-09-05T12:52:44.829Z,23.97
2017-09-05T12:55:12.700Z,24.07
2017-09-05T12:57:40.583Z,24.13
2017-09-05T13:00:08.473Z,24.24
2017-09-05T13:02:36.369Z,24.35
2017-09-05T13:05:04.235Z,24.29
2017-09-05T13:07:32.109Z,24.41
2017-09-05T13:10:00.043Z,24.31
2017-09-05T13:12:27.934Z,24.25
2017-09-05T13:14:55.852Z,24.31
2017-09-05T13:17:23.744Z,24.35
2017-09-05T13:19:51.623Z,24.45
2017-09-05T13:22:19.477Z,24.48
2017-09-05T13:24:47.392Z,24.48
2017-09-05T13:27:15.268Z,24.12
2017-09-05T13:29:43.291Z,23.86
2017-09-05T13:32:11.147Z,23.59
2017-09-05T13:34:39.165Z,23.66
2017-09-05T13:37:07.115Z,23.62
2017-09-05T13:39:35.128Z,23.55
2017-09-05T13:42:03.118Z,23.44
2017-09-05T13:44:31.147Z,23.45
2017-09-05T13:46:59.102Z,23.52
2017-09-05T13:49:27.127Z,23.69
2017-09-05T13:51:55.084Z,23.84
2017-09-05T13:54:23.079Z,23.86
2017-09-05T13:56:51.081Z,23.48
2017-09-05T13:59:19.033Z,23.37
2017-09-05T14:01:47.040Z,23.45
2017-09-05T14:04:15.034Z,23.66
2017-09-05T14:06:43.069Z,24.05
2017-09-05T14:09:11.034Z,24.40
2017-09-05T14:11:40.992Z,24.79
2017-09-05T14:14:08.948Z,24.98
2017-09-05T14:16:36.959Z,24.74
2017-09-05T14:19:04.933Z,24.63
2017-09-05T14:21:32.952Z,24.55
2017-09-05T14:24:00.936Z,24.64
2017-09-05T14:26:29.026Z,24.71
2017-09-05T14:28:57.068Z,24.71
2017-09-05T14:31:25.115Z,24.78
2017-09-05T14:33:53.044Z,24.64
2017-09-05T14:36:20.967Z,24.37
2017-09-05T14:38:48.960Z,24.27
2017-09-05T14:41:16.936Z,24.22
2017-09-05T14:43:44.876Z,24.16
2017-09-05T14:46:12.983Z,24.06
2017-09-05T14:48:41.002Z,23.72
2017-09-05T14:51:08.889Z,23.42
2017-09-05T14:53:36.792Z,23.37
2017-09-05T14:56:04.697Z,23.51
2017-09-05T14:58:32.658Z,23.65
2017-09-05T15:01:00.562Z,23.73
2017-09-05T15:03:28.539Z,23.51
2017-09-05T15:05:56.516Z,23.40
2017-09-05T15:08:24.400Z,23.25
2017-09-05T15:10:52.412Z,23.14
2017-09-05T15:13:20.293Z,23.04
2017-09-05T15:15:48.388Z,22.89
2017-09-05T15:18:16.367Z,22.71
2017-09-05T15:20:44.406Z,22.54
2017-09-05T15:23:12.362Z,22.47
2017-09-05T15:25:40.410Z,22.21
2017-09-05T15:28:08.375Z,21.99
2017-09-05T15:30:36.450Z,21.86
2017-09-05T15:33:04.359Z,21.74
2017-09-05T15:35:32.405Z,21.64
2017-09-05T15:38:00.379Z,21.60
2017-09-05T15:40:28.397Z,21.58
2017-09-05T15:42:56.352Z,21.53
2017-09-05T15:45:24.369Z,21.49
2017-09-05T15:47:52.398Z,21.48
2017-09-05T15:50:20.366Z,21.50
2017-09-05T15:52:48.385Z,21.49
2017-09-05T15:55:16.365Z,21.51
2017-09-05T15:57:44.372Z,21.51
2017-09-05T16:00:12.368Z,21.52
2017-09-05T16:02:40.366Z,21.53
2017-09-05T16:05:08.258Z,21.52
2017-09-05T16:07:36.287Z,21.46
2017-09-05T16:10:04.166Z,21.37
2017-09-05T16:12:32.233Z,21.31
2017-09-05T16:15:00.192Z,21.21
2017-09-05T16:17:28.237Z,21.16
2017-09-05T16:19:56.239Z,21.11
2017-09-05T16:22:24.286Z,21.08
2017-09-05T16:24:52.318Z,21.02
2017-09-05T16:27:20.475Z,20.97
2017-09-05T16:29:48.669Z,20.92
2017-09-05T16:32:16.793Z,20.86
2017-09-05T16:34:44.791Z,20.80
2017-09-05T16:37:12.757Z,20.68
2017-09-05T16:39:40.786Z,20.60
2017-09-05T16:42:08.780Z,20.49
2017-09-05T16:44:36.828Z,20.46
2017-09-05T16:47:04.798Z,20.45
2017-09-05T16:49:32.856Z,20.37
2017-09-05T16:52:00.868Z,20.32
2017-09-05T16:54:28.896Z,20.28
2017-09-05T16:56:56.793Z,20.23
2017-09-05T16:59:24.799Z,20.14
2017-09-05T17:01:52.764Z,20.04
2017-09-05T17:04:20.750Z,19.91
2017-09-05T17:06:48.809Z,19.84
2017-09-05T17:09:16.724Z,19.80
2017-09-05T17:11:44.794Z,19.75
2017-09-05T17:14:12.793Z,19.68
2017-09-05T17:16:40.789Z,19.58
2017-09-05T17:19:08.894Z,19.44
2017-09-05T17:21:36.958Z,19.34
2017-09-05T17:24:04.922Z,19.19
2017-09-05T17:26:33.039Z,19.05
2017-09-05T17:29:01.057Z,18.92
2017-09-05T17:31:29.128Z,18.83
2017-09-05T17:33:57.102Z,18.74
2017-09-05T17:36:25.095Z,18.64
2017-09-05T17:38:53.095Z,18.53
2017-09-05T17:41:21.120Z,18.44
2017-09-05T17:43:49.084Z,18.37
2017-09-05T17:46:17.082Z,18.29
2017-09-05T17:48:45.071Z,18.19
2017-09-05T17:51:13.043Z,18.09
2017-09-05T17:53:41.089Z,17.98
2017-09-05T17:56:09.086Z,17.84
2017-09-05T17:58:37.138Z,17.71
2017-09-05T18:01:05.131Z,17.63
2017-09-05T18:03:33.166Z,17.56
2017-09-05T18:06:01.171Z,17.50
2017-09-05T18:08:29.190Z,17.47
2017-09-05T18:10:57.180Z,17.46
2017-09-05T18:13:25.261Z,17.41
2017-09-05T18:15:53.284Z,17.34
2017-09-05T18:18:21.279Z,17.25
2017-09-05T18:20:49.319Z,17.17
2017-09-05T18:23:17.317Z,17.11
2017-09-05T18:25:45.193Z,17.02
2017-09-05T18:28:13.113Z,16.96
2017-09-05T18:30:40.998Z,16.96
2017-09-05T18:33:08.935Z,16.96
2017-09-05T18:35:36.796Z,16.97
2017-09-05T18:38:04.659Z,16.97
2017-09-05T18:40:32.551Z,16.94
2017-09-05T18:43:00.530Z,16.92
2017-09-05T18:45:28.562Z,16.90
2017-09-05T18:47:56.541Z,16.85
2017-09-05T18:50:24.714Z,16.79
2017-09-05T18:52:52.719Z,16.74
2017-09-05T18:55:20.676Z,16.72
2017-09-05T18:57:48.667Z,16.76
2017-09-05T19:00:16.692Z,16.81
2017-09-05T19:02:44.564Z,16.85
2017-09-05T19:05:12.453Z,16.82
2017-09-05T19:07:40.493Z,16.74
2017-09-05T19:10:08.346Z,16.69
2017-09-05T19:12:36.358Z,16.70
2017-09-05T19:15:04.328Z,16.72
2017-09-05T19:17:32.368Z,16.73
2017-09-05T19:20:00.246Z,16.69
2017-09-05T19:22:28.203Z,16.62
2017-09-05T19:24:56.152Z,16.53
2017-09-05T19:27:24.142Z,16.44
2017-09-05T19:29:52.023Z,16.38
2017-09-05T19:32:19.957Z,16.29
2017-09-05T19:34:47.821Z,16.22
2017-09-05T19:37:15.837Z,16.11
2017-09-05T19:39:43.874Z,16.04
2017-09-05T19:42:11.855Z,15.95
2017-09-05T19:44:39.778Z,15.91
2017-09-05T19:47:07.760Z,15.84
2017-09-05T19:49:35.729Z,15.78
2017-09-05T19:52:03.708Z,15.69
2017-09-05T19:54:31.627Z,15.60
2017-09-05T19:56:59.505Z,15.58
2017-09-05T19:59:27.425Z,15.58
2017-09-05T20:01:55.326Z,15.56
2017-09-05T20:04:23.282Z,15.51
2017-09-05T20:06:51.161Z,15.46
2017-09-05T20:09:19.039Z,15.42
2017-09-05T20:11:46.952Z,15.42
2017-09-05T20:14:14.835Z,15.42
2017-09-05T20:16:42.832Z,15.41
2017-09-05T20:19:10.710Z,15.32
2017-09-05T20:21:38.622Z,15.27
2017-09-05T20:24:06.466Z,15.18
2017-09-05T20:26:34.384Z,15.16
2017-09-05T20:29:02.260Z,15.20
2017-09-05T20:31:30.281Z,15.24
2017-09-05T20:33:58.179Z,15.28
2017-09-05T20:36:26.103Z,15.31
2017-09-05T20:38:53.985Z,15.33
2017-09-05T20:41:21.852Z,15.38
2017-09-05T20:43:49.812Z,15.39
2017-09-05T20:46:17.748Z,15.44
2017-09-05T20:48:45.749Z,15.48
2017-09-05T20:51:13.628Z,15.49
2017-09-05T20:53:41.575Z,15.51
2017-09-05T20:56:09.491Z,15.44
2017-09-05T20:58:37.436Z,15.40
2017-09-05T21:01:05.322Z,15.40
2017-09-05T21:03:33.338Z,15.45
2017-09-05T21:06:01.299Z,15.45
2017-09-05T21:08:29.322Z,15.46
2017-09-05T21:10:57.275Z,15.47
2017-09-05T21:13:25.274Z,15.47
2017-09-05T21:15:53.244Z,15.48
2017-09-05T21:18:21.279Z,15.46
2017-09-05T21:20:49.360Z,15.47
2017-09-05T21:23:17.393Z,15.47
2017-09-05T21:25:45.387Z,15.50
2017-09-05T21:28:13.305Z,15.51
2017-09-05T21:30:41.159Z,15.53
2017-09-05T21:33:09.184Z,15.56
2017-09-05T21:35:37.119Z,15.54
2017-09-05T21:38:04.957Z,15.51
2017-09-05T21:40:32.966Z,15.50
2017-09-05T21:43:00.822Z,15.53
2017-09-05T21:45:28.814Z,15.65
2017-09-05T21:47:56.758Z,15.80
2017-09-05T21:50:24.755Z,15.92
2017-09-05T21:52:52.726Z,16.04
2017-09-05T21:55:20.776Z,16.13
2017-09-05T21:57:48.746Z,16.22
2017-09-05T22:00:16.749Z,16.27
2017-09-05T22:02:44.719Z,16.30
2017-09-05T22:05:12.706Z,16.34
2017-09-05T22:07:40.652Z,16.37
2017-09-05T22:10:08.667Z,16.40
2017-09-05T22:12:36.633Z,16.44
2017-09-05T22:15:10.139Z,16.47
2017-09-05T22:17:38.134Z,16.49
2017-09-05T22:20:11.541Z,16.40
2017-09-05T22:22:45.213Z,16.35
2017-09-05T22:25:18.791Z,16.32
2017-09-05T22:27:52.256Z,16.31
2017-09-05T22:30:20.269Z,16.33
2017-09-05T22:32:48.206Z,16.33
2017-09-05T22:35:16.236Z,16.31
2017-09-05T22:37:44.172Z,16.29
2017-09-05T22:40:12.164Z,16.29
2017-09-05T22:42:40.152Z,16.27
2017-09-05T22:45:09.044Z,16.25
2017-09-05T22:47:41.587Z,16.21
2017-09-05T22:50:09.629Z,16.11
2017-09-05T22:52:37.628Z,16.05
2017-09-05T22:55:06.594Z,15.99
2017-09-05T22:57:35.101Z,15.93
2017-09-05T23:00:06.054Z,15.85
2017-09-05T23:05:10.614Z,15.80
2017-09-05T23:07:39.661Z,15.82
2017-09-05T23:10:09.752Z,15.83
2017-09-05T23:12:39.562Z,15.82
2017-09-05T23:15:07.883Z,15.82
2017-09-05T23:17:38.316Z,15.80
2017-09-05T23:20:08.875Z,15.78
2017-09-05T23:22:37.001Z,15.78
2017-09-05T23:25:05.774Z,15.74
2017-09-05T23:27:36.330Z,15.65
2017-09-05T23:30:05.317Z,15.55
2017-09-05T23:32:36.458Z,15.49
2017-09-05T23:35:06.067Z,15.49
2017-09-05T23:37:38.940Z,15.45
2017-09-05T23:40:08.171Z,15.49
2017-09-05T23:42:38.320Z,15.53
2017-09-05T23:45:06.667Z,15.59
2017-09-05T23:47:35.353Z,15.64
2017-09-05T23:50:03.849Z,15.73
2017-09-05T23:52:32.306Z,15.83
2017-09-05T23:55:00.387Z,15.91
2017-09-05T23:57:30.077Z,15.98
2017-09-05T23:59:59.879Z,16.03
